ESNU/UME METAR and TAF weather

Enter ICAO airport designator
Station Type Date Time Source
ESNU METAR 2022/12/04 11:20 UTC NOAA

ESNU 041120Z 33003KT CAVOK M07/M07 Q1035


Station Type Date Time Source
ESNU Decoded METAR 2022/12/04 11:20 UTC NOAA

Umea Flygplats, Sweden (ESNU) 63-48N 020-17E 14M
Dec 04, 2022 - 06:20 AM EST / 2022.12.04 1120 UTC
Wind: from the NNW (330 degrees) at 3 MPH (3 KT):0
Visibility: greater than 7 mile(s):0
Temperature: 19 F (-7 C)
Dew Point: 19 F (-7 C)
Relative Humidity: 100%
Pressure (altimeter): 30.56 in. Hg (1035 hPa)
ob: ESNU 041120Z 33003KT CAVOK M07/M07 Q1035
cycle: 11

Station Type Date Time Source
ESNU TAF 2019/10/24 00:55 UTC NOAA

TAF
AMD ESNU 242348Z 2500/2524 16003KT 0200 FG VV002 PROB40 2500/2509 8000 -RA BKN005

Example: see airport list